Terminal Aerodrome Forecast
Issued by NWS Cleveland, OH

Home | Current Version | Previous Version | Graphics & Text | Print | Product List | Glossary On
Versions: 1 2 3 4 5 6 7 8 9 10 11 12 13 14 15 16 17 18 19 20 21 22 23 24
312
FTUS41 KCLE 010526
TAFMFD
TAF
KMFD 010526Z 0106/0206 16009KT 6SM BR OVC003
      TEMPO 0106/0109 4SM -SHRA BR
     FM010900 20007KT 4SM -DZ BR OVC003
     FM011600 29006KT 6SM BR OVC003
      TEMPO 0116/0118 3SM SHRA BR
     FM011800 32006KT P6SM OVC015
     FM020400 VRB03KT 4SM -RA BR OVC003=

USA.gov is the U.S. government's official web portal to all federal, state and local government web resources and services.